Time;durP1;ratioP1;P1;durP2;ratioP2;P2;SDS_P1;SDS_P2;PMS_P1;PMS_P2;Temp;Humidity;BMP_temperature;BMP_pressure;BME280_temperature;BME280_humidity;BME280_pressure;Samples;Min_cycle;Max_cycle;Signal;HPM_P1;HPM_P2
2023/08/24 00:00:09;;;;;;;8.70;4.50;;;;;;;15.85;100.00;93372.34;2082371;28;20040;-83
2023/08/24 00:01:13;;;;;;;5.38;4.20;;;;;;;15.83;100.00;93378.16;2081670;28;20041;-82
2023/08/24 00:02:13;;;;;;;6.22;4.72;;;;;;;15.78;100.00;93370.66;2075836;28;20064;-81
2023/08/24 00:03:14;;;;;;;6.82;4.07;;;;;;;15.77;100.00;93371.13;2085865;28;20375;-82
2023/08/24 00:04:15;;;;;;;7.10;4.30;;;;;;;15.90;100.00;93366.38;2090331;28;20693;-83
2023/08/24 00:05:16;;;;;;;6.68;4.53;;;;;;;15.95;100.00;93367.75;2090337;28;20033;-82
2023/08/24 00:06:18;;;;;;;6.15;4.88;;;;;;;15.91;100.00;93362.47;2086196;28;20037;-81
2023/08/24 00:07:20;;;;;;;5.90;4.40;;;;;;;15.81;100.00;93367.09;2076020;28;20169;-81
2023/08/24 00:08:21;;;;;;;4.68;4.05;;;;;;;15.81;100.00;93367.09;2090626;28;20036;-82
2023/08/24 00:09:22;;;;;;;4.78;4.30;;;;;;;15.87;100.00;93364.56;2096351;28;20124;-82
2023/08/24 00:10:23;;;;;;;5.57;4.47;;;;;;;15.78;100.00;93354.50;2075497;28;20037;-83
2023/08/24 00:11:44;;;;;;;5.07;4.30;;;;;;;15.75;100.00;93354.63;2089792;28;20025;-81
2023/08/24 00:13:26;;;;;;;5.55;4.22;;;;;;;15.92;100.00;93352.44;2083281;28;20157;-81
2023/08/24 00:14:27;;;;;;;5.35;4.57;;;;;;;15.95;100.00;93360.41;2092703;28;20131;-81
2023/08/24 00:15:29;;;;;;;6.78;4.68;;;;;;;15.83;100.00;93358.56;2090428;28;20017;-81
2023/08/24 00:16:30;;;;;;;6.18;4.53;;;;;;;15.79;100.00;93355.25;2089625;28;20028;-82
2023/08/24 00:17:31;;;;;;;8.55;4.28;;;;;;;15.79;100.00;93357.94;2090210;28;20370;-82
2023/08/24 00:18:32;;;;;;;5.70;4.28;;;;;;;15.81;100.00;93348.22;2096101;28;20098;-82
2023/08/24 00:19:34;;;;;;;5.05;4.55;;;;;;;15.91;100.00;93359.78;2086818;28;20029;-81
2023/08/24 00:20:35;;;;;;;4.85;4.40;;;;;;;16.02;100.00;93353.97;2082022;28;20025;-82
2023/08/24 00:21:36;;;;;;;7.95;4.75;;;;;;;16.02;100.00;93351.28;2073496;28;20523;-82
2023/08/24 00:22:39;;;;;;;7.38;4.20;;;;;;;15.83;100.00;93353.16;2089691;28;20111;-81
2023/08/24 00:23:40;;;;;;;5.75;4.45;;;;;;;15.80;100.00;93356.72;2102302;28;20027;-81
2023/08/24 00:24:41;;;;;;;5.35;4.03;;;;;;;15.76;100.00;93356.91;2089525;28;20116;-81
2023/08/24 00:25:41;;;;;;;6.03;4.07;;;;;;;15.82;100.00;93357.06;2090086;28;20025;-82
2023/08/24 00:26:43;;;;;;;5.85;4.18;;;;;;;15.78;100.00;93354.50;2091118;28;20079;-82
2023/08/24 00:27:44;;;;;;;5.60;4.50;;;;;;;15.79;100.00;93349.84;2080032;28;20072;-81
2023/08/24 00:28:45;;;;;;;7.00;4.63;;;;;;;15.88;100.00;93347.19;2090401;28;20036;-81
2023/08/24 00:29:46;;;;;;;5.05;4.10;;;;;;;15.83;100.00;93351.22;2092854;28;20013;-81
2023/08/24 00:30:47;;;;;;;6.75;4.68;;;;;;;15.78;100.00;93356.44;2089975;28;20028;-81
2023/08/24 00:31:48;;;;;;;4.78;4.38;;;;;;;15.65;100.00;93350.38;2090065;28;20016;-81
2023/08/24 00:32:50;;;;;;;5.15;4.55;;;;;;;15.56;100.00;93359.91;2081393;28;20079;-81
2023/08/24 00:33:51;;;;;;;4.72;4.22;;;;;;;15.85;100.00;93348.09;2095461;28;20113;-81
2023/08/24 00:34:52;;;;;;;5.38;4.50;;;;;;;15.78;100.00;93353.75;2098171;28;20450;-81
2023/08/24 00:35:53;;;;;;;7.22;4.47;;;;;;;15.71;100.00;93349.34;2079114;28;20468;-81
2023/08/24 00:36:54;;;;;;;5.13;4.55;;;;;;;15.72;100.00;93352.84;2088774;28;20025;-82
2023/08/24 00:37:55;;;;;;;4.68;4.25;;;;;;;15.77;100.00;93339.53;2089658;28;20025;-81
2023/08/24 00:39:06;;;;;;;5.45;4.55;;;;;;;15.57;100.00;93345.22;2082073;28;20018;-81
2023/08/24 00:40:11;;;;;;;5.85;4.28;;;;;;;15.56;100.00;93341.03;2091921;28;20021;-81
2023/08/24 00:41:12;;;;;;;5.15;4.20;;;;;;;15.63;100.00;93331.94;2082648;28;20025;-82
2023/08/24 00:42:15;;;;;;;7.18;4.47;;;;;;;15.64;100.00;93332.69;2076473;28;20029;-81
2023/08/24 00:43:16;;;;;;;5.22;4.70;;;;;;;15.54;100.00;93329.97;2080312;28;20030;-82
2023/08/24 00:44:17;;;;;;;6.50;4.40;;;;;;;15.49;100.00;93333.22;2076820;28;20080;-80
2023/08/24 00:45:18;;;;;;;5.00;4.53;;;;;;;15.38;100.00;93329.44;2089875;28;20028;-82
2023/08/24 00:46:19;;;;;;;5.32;4.85;;;;;;;15.44;100.00;93333.78;2089666;28;20062;-81
2023/08/24 00:47:21;;;;;;;4.82;4.40;;;;;;;15.44;100.00;93333.78;2098396;28;20020;-83
2023/08/24 00:48:28;;;;;;;8.32;5.18;;;;;;;15.47;100.00;93329.47;2082406;28;20025;-82
2023/08/24 00:49:29;;;;;;;6.68;4.72;;;;;;;15.45;100.00;93331.84;2090707;28;20027;-82
2023/08/24 00:50:31;;;;;;;6.75;4.97;;;;;;;15.38;100.00;93332.13;2089845;28;20481;-81
2023/08/24 00:51:32;;;;;;;6.63;4.68;;;;;;;15.31;100.00;93328.47;2098142;28;20059;-81
2023/08/24 00:52:35;;;;;;;6.78;4.72;;;;;;;15.37;100.00;93331.38;2100743;28;20105;-80
2023/08/24 00:53:37;;;;;;;6.38;4.97;;;;;;;15.43;100.00;93328.84;2097777;28;20054;-81
2023/08/24 00:56:43;;;;;;;5.35;4.80;;;;;;;15.54;100.00;93321.88;2094272;28;20036;-82
2023/08/24 00:57:45;;;;;;;6.22;4.47;;;;;;;15.59;100.00;93328.63;2104391;28;20031;-82
2023/08/24 00:58:47;;;;;;;12.55;4.90;;;;;;;15.61;100.00;93313.50;2089934;28;20485;-81
2023/08/24 00:59:53;;;;;;;6.55;4.60;;;;;;;15.52;100.00;93318.88;2092557;28;20114;-82
2023/08/24 01:00:56;;;;;;;7.38;4.50;;;;;;;15.45;100.00;93321.84;2104857;28;20094;-81
2023/08/24 01:01:58;;;;;;;10.15;5.20;;;;;;;15.34;100.00;93327.59;2098070;28;20582;-82
2023/08/24 01:03:24;;;;;;;6.40;4.93;;;;;;;15.22;100.00;93316.91;2084359;28;20041;-83
2023/08/24 01:04:25;;;;;;;5.88;4.78;;;;;;;15.23;100.00;93313.00;2090658;28;20034;-82
2023/08/24 01:05:28;;;;;;;7.38;4.45;;;;;;;15.21;100.00;93312.72;2081333;28;20029;-82
2023/08/24 01:06:29;;;;;;;5.15;4.60;;;;;;;15.22;100.00;93316.91;2081293;28;20076;-81
2023/08/24 01:07:32;;;;;;;8.07;5.03;;;;;;;15.06;100.00;93315.94;2086466;28;20094;-81
2023/08/24 01:10:52;;;;;;;6.00;5.00;;;;;;;15.22;100.00;93314.22;2096170;28;20028;-82
2023/08/24 01:12:12;;;;;;;;;;;;;;;15.18;100.00;93308.94;2091783;28;20543;-82
2023/08/24 01:13:21;;;;;;;8.00;4.88;;;;;;;15.24;100.00;93306.47;2091930;28;19922;-81
2023/08/24 01:14:42;;;;;;;5.40;4.60;;;;;;;15.15;100.00;93312.53;2091226;28;20074;-82
2023/08/24 01:16:05;;;;;;;7.03;5.00;;;;;;;15.16;100.00;93303.25;2092602;28;20056;-79
2023/08/24 01:17:11;;;;;;;6.90;5.20;;;;;;;15.20;100.00;93301.19;2088284;28;20485;-83
2023/08/24 01:18:15;;;;;;;5.10;4.60;;;;;;;15.22;100.00;93308.81;2083574;28;20041;-81
2023/08/24 01:19:34;;;;;;;5.78;4.47;;;;;;;15.18;100.00;93303.56;2100332;28;20081;-80
2023/08/24 01:20:57;;;;;;;5.85;4.88;;;;;;;15.18;100.00;93306.25;2092140;28;20039;-83
2023/08/24 01:22:02;;;;;;;6.60;4.95;;;;;;;15.19;100.00;93305.09;2097596;28;20070;-81
2023/08/24 01:23:41;;;;;;;8.40;4.95;;;;;;;15.22;100.00;93303.44;2090847;28;20698;-82
2023/08/24 01:24:53;;;;;;;5.82;4.70;;;;;;;15.20;100.00;93306.59;2090324;28;20075;-81
2023/08/24 01:26:13;;;;;;;9.27;5.13;;;;;;;15.10;100.00;93311.16;2086327;28;20029;-81
2023/08/24 01:27:15;;;;;;;7.07;4.97;;;;;;;15.09;100.00;93304.25;2087748;28;20420;-82
2023/08/24 01:28:18;;;;;;;5.57;5.10;;;;;;;15.19;100.00;93307.78;2094954;28;20032;-82
2023/08/24 01:29:19;;;;;;;5.85;5.20;;;;;;;15.08;100.00;93308.16;2081786;28;20057;-81
2023/08/24 01:30:20;;;;;;;6.30;4.90;;;;;;;15.08;100.00;93307.41;2100615;28;20009;-82
2023/08/24 01:31:21;;;;;;;7.47;5.65;;;;;;;15.17;100.00;93304.00;2084619;28;20075;-81
2023/08/24 01:32:22;;;;;;;9.32;4.93;;;;;;;15.09;100.00;93306.94;2081619;28;20028;-81
2023/08/24 01:34:51;;;;;;;6.18;5.13;;;;;;;14.95;100.00;93309.41;2164500;22;20049;-81
2023/08/24 01:35:52;;;;;;;7.25;4.63;;;;;;;14.89;100.00;93301.16;2072855;28;20021;-80
2023/08/24 01:36:53;;;;;;;7.70;5.35;;;;;;;14.97;100.00;93304.31;2058795;28;20058;-80
2023/08/24 01:37:55;;;;;;;6.85;4.88;;;;;;;14.88;100.00;93298.88;2062137;28;20085;-82
2023/08/24 01:39:28;;;;;;;7.70;5.43;;;;;;;15.01;100.00;93296.88;2067326;28;20068;-82
2023/08/24 01:40:39;;;;;;;8.27;5.20;;;;;;;15.06;100.00;93294.38;2075111;28;20405;-82
2023/08/24 01:41:46;;;;;;;8.00;5.30;;;;;;;15.04;100.00;93293.31;2080928;28;20029;-82
2023/08/24 01:43:05;;;;;;;7.68;5.22;;;;;;;14.97;100.00;93283.56;2073009;28;20097;-82
2023/08/24 01:44:09;;;;;;;12.10;5.55;;;;;;;15.04;100.00;93288.69;2067585;28;20026;-81
2023/08/24 01:45:12;;;;;;;7.25;5.20;;;;;;;15.06;100.00;93290.94;2061778;28;20105;-80
2023/08/24 01:46:16;;;;;;;6.15;4.85;;;;;;;15.08;100.00;93286.63;2064794;28;20025;-82
2023/08/24 01:47:19;;;;;;;6.20;5.50;;;;;;;14.97;100.00;93285.47;2062214;28;20038;-82
2023/08/24 01:48:21;;;;;;;6.70;5.60;;;;;;;15.02;100.00;93282.25;2072788;28;20592;-81
2023/08/24 01:49:23;;;;;;;5.68;4.90;;;;;;;14.96;100.00;93284.75;2072658;28;20052;-81
2023/08/24 01:50:25;;;;;;;7.40;5.38;;;;;;;15.08;100.00;93281.22;2073285;28;20034;-80
2023/08/24 01:51:28;;;;;;;7.40;5.47;;;;;;;15.10;100.00;93284.25;2064335;28;20026;-82
2023/08/24 01:52:36;;;;;;;6.70;5.50;;;;;;;15.10;100.00;93278.09;2057445;28;20105;-82
2023/08/24 01:53:39;;;;;;;8.23;5.55;;;;;;;15.15;100.00;93277.53;2066793;28;20509;-81
2023/08/24 01:54:40;;;;;;;9.05;5.43;;;;;;;15.11;100.00;93276.91;2064189;28;20060;-82
2023/08/24 01:57:38;;;;;;;5.97;4.55;;;;;;;15.25;100.00;93273.69;2080537;28;20029;-83
2023/08/24 01:58:39;;;;;;;5.45;4.80;;;;;;;15.29;100.00;93268.19;2073322;28;20021;-81
2023/08/24 01:59:40;;;;;;;6.30;5.15;;;;;;;15.28;100.00;93264.00;2060538;28;20054;-81
2023/08/24 02:00:41;;;;;;;5.47;4.97;;;;;;;15.23;100.00;93262.63;2064429;28;20018;-81
2023/08/24 02:01:43;;;;;;;8.13;5.38;;;;;;;15.07;100.00;93266.28;2064507;28;20033;-81
2023/08/24 02:03:02;;;;;;;6.75;4.65;;;;;;;15.13;100.00;93260.31;2072695;28;20033;-82
2023/08/24 02:06:00;;;;;;;7.70;5.00;;;;;;;15.30;100.00;93259.66;2088049;28;20043;-82
2023/08/24 02:07:01;;;;;;;6.25;5.53;;;;;;;15.31;100.00;93258.44;2072547;28;20058;-82
2023/08/24 02:08:02;;;;;;;5.28;4.78;;;;;;;15.34;100.00;93256.81;2072487;28;20423;-81
2023/08/24 02:09:03;;;;;;;5.43;4.93;;;;;;;15.32;100.00;93261.88;2084160;28;20044;-81
2023/08/24 02:12:29;;;;;;;7.15;5.13;;;;;;;15.42;100.00;93260.00;2080104;28;20021;-81
2023/08/24 02:14:10;;;;;;;7.88;5.05;;;;;;;15.29;100.00;93263.53;2072592;28;20517;-81
2023/08/24 02:15:11;;;;;;;5.25;4.75;;;;;;;15.24;100.00;93257.97;2076525;28;20107;-80
2023/08/24 02:16:50;;;;;;;6.18;4.88;;;;;;;15.29;100.00;93260.84;2084201;28;20028;-81
2023/08/24 02:19:48;;;;;;;5.05;4.57;;;;;;;15.33;100.00;93250.69;2084915;28;20119;-82
2023/08/24 02:20:49;;;;;;;5.57;5.07;;;;;;;15.36;100.00;93255.19;2083343;28;20520;-82
2023/08/24 02:25:46;;;;;;;5.65;4.70;;;;;;;15.44;100.00;93244.88;2080584;28;20385;-81
2023/08/24 02:26:47;;;;;;;7.38;5.00;;;;;;;15.36;100.00;93249.03;2064817;28;20117;-81
2023/08/24 02:27:48;;;;;;;5.25;4.80;;;;;;;15.39;100.00;93242.78;2081231;28;20021;-80
2023/08/24 02:28:49;;;;;;;8.52;5.63;;;;;;;15.42;100.00;93251.94;2073835;28;20436;-79
2023/08/24 02:29:50;;;;;;;5.80;4.85;;;;;;;15.53;100.00;93252.25;2070155;28;20018;-82
2023/08/24 02:30:51;;;;;;;5.30;4.78;;;;;;;15.59;100.00;93239.72;2065803;28;20007;-83
2023/08/24 02:31:52;;;;;;;5.57;4.70;;;;;;;15.58;100.00;93238.97;2081475;28;20085;-82
2023/08/24 02:32:53;;;;;;;7.20;4.93;;;;;;;15.43;100.00;93238.00;2087179;28;20026;-81
2023/08/24 02:33:54;;;;;;;8.77;5.20;;;;;;;15.44;100.00;93244.88;2089767;28;20029;-81
2023/08/24 02:34:55;;;;;;;6.63;5.15;;;;;;;15.35;100.00;93242.16;2082155;28;20045;-80
2023/08/24 02:37:56;;;;;;;5.43;4.93;;;;;;;15.34;100.00;93238.72;2088923;28;20016;-82
2023/08/24 02:38:56;;;;;;;6.28;5.22;;;;;;;15.32;100.00;93243.03;2065949;28;20121;-81
2023/08/24 02:39:57;;;;;;;5.63;5.13;;;;;;;15.36;100.00;93238.25;2073216;28;20595;-81
2023/08/24 02:41:04;;;;;;;5.90;5.30;;;;;;;15.39;100.00;93244.72;2072929;28;20789;-81
2023/08/24 02:42:06;;;;;;;7.80;5.32;;;;;;;15.45;100.00;93242.94;2069156;28;20340;-81
2023/08/24 02:43:07;;;;;;;6.15;5.53;;;;;;;15.43;100.00;93242.66;2077654;28;20135;-82
2023/08/24 02:44:08;;;;;;;7.20;4.82;;;;;;;15.42;100.00;93236.50;2076440;28;20022;-81
2023/08/24 02:45:09;;;;;;;5.25;4.75;;;;;;;15.43;100.00;93237.25;2072193;28;20443;-82
2023/08/24 02:46:10;;;;;;;9.88;5.50;;;;;;;15.33;100.00;93234.53;2080686;28;20033;-82
2023/08/24 02:47:11;;;;;;;7.47;5.00;;;;;;;15.43;100.00;93234.56;2089222;28;20049;-81
2023/08/24 02:48:12;;;;;;;7.93;5.10;;;;;;;15.44;100.00;93234.13;2077839;28;20026;-81
2023/08/24 02:49:14;;;;;;;6.63;5.50;;;;;;;15.46;100.00;93239.06;2076312;28;20073;-81
2023/08/24 02:50:32;;;;;;;7.43;5.70;;;;;;;15.41;100.00;93235.03;2056890;28;20027;-81
2023/08/24 02:55:26;;;;;;;7.13;5.43;;;;;;;15.64;100.00;93235.69;2082551;28;20389;-81
2023/08/24 02:56:28;;;;;;;6.90;5.28;;;;;;;15.59;100.00;93232.38;2074141;28;20083;-81
2023/08/24 02:57:29;;;;;;;5.88;5.15;;;;;;;15.59;100.00;93235.06;2080963;28;20026;-81
2023/08/24 02:58:30;;;;;;;7.72;5.70;;;;;;;15.62;100.00;93238.81;2080642;28;20032;-80
2023/08/24 03:02:09;;;;;;;6.43;5.50;;;;;;;15.64;100.00;93241.09;2079382;28;20029;-81
2023/08/24 03:03:36;;;;;;;7.25;5.63;;;;;;;15.65;100.00;93239.91;2078166;28;20196;-81
2023/08/24 03:04:37;;;;;;;6.10;5.15;;;;;;;15.64;100.00;93243.78;2079211;28;20030;-81
2023/08/24 03:05:38;;;;;;;5.65;5.10;;;;;;;15.69;100.00;93238.56;2072878;28;20057;-81
2023/08/24 03:06:39;;;;;;;7.90;5.38;;;;;;;15.71;100.00;93241.56;2080452;28;20091;-81
2023/08/24 03:08:29;;;;;;;6.32;5.28;;;;;;;15.68;100.00;93237.06;2072764;28;20033;-82
2023/08/24 03:11:33;;;;;;;6.82;4.95;;;;;;;15.68;100.00;93237.06;2073213;28;20030;-81
2023/08/24 03:13:14;;;;;;;7.25;5.50;;;;;;;15.74;100.00;93235.28;2065123;28;20026;-81
2023/08/24 03:14:37;;;;;;;5.78;5.13;;;;;;;15.77;100.00;93230.97;2075256;28;20025;-82
2023/08/24 03:15:38;;;;;;;8.27;5.90;;;;;;;15.69;100.00;93218.97;2054517;28;20046;-81
2023/08/24 03:18:36;;;;;;;6.97;5.32;;;;;;;15.75;100.00;93222.56;2082588;28;20032;-82
2023/08/24 03:19:37;;;;;;;8.35;5.45;;;;;;;15.74;100.00;93213.72;2081464;28;20021;-82
2023/08/24 03:20:38;;;;;;;9.18;5.43;;;;;;;15.75;100.00;93214.47;2058156;28;20030;-82
2023/08/24 03:21:39;;;;;;;8.20;5.25;;;;;;;15.71;100.00;93214.59;2066067;28;20018;-84
2023/08/24 03:22:40;;;;;;;7.75;5.53;;;;;;;15.85;100.00;93207.91;2074172;28;20044;-83
2023/08/24 03:23:41;;;;;;;7.28;5.15;;;;;;;15.78;100.00;93208.94;2083895;28;20017;-82
2023/08/24 03:24:42;;;;;;;6.32;5.72;;;;;;;15.75;100.00;93204.44;2072988;28;20017;-83
2023/08/24 03:25:44;;;;;;;5.93;5.30;;;;;;;15.75;100.00;93206.38;2073921;28;20069;-83
2023/08/24 03:26:45;;;;;;;6.00;5.40;;;;;;;15.81;100.00;93208.06;2077976;28;20489;-83
2023/08/24 03:27:46;;;;;;;6.68;5.47;;;;;;;15.72;100.00;93212.69;2074220;28;20041;-83
2023/08/24 03:28:48;;;;;;;6.65;5.40;;;;;;;15.78;100.00;93208.19;2067783;28;20025;-83
2023/08/24 03:29:53;;;;;;;6.38;5.32;;;;;;;15.78;100.00;93213.59;2073103;28;20029;-83
2023/08/24 03:30:55;;;;;;;7.18;5.28;;;;;;;15.76;100.00;93205.97;2075149;28;20026;-82
2023/08/24 03:31:56;;;;;;;8.10;5.28;;;;;;;15.68;100.00;93206.69;2076629;28;20022;-82
2023/08/24 03:32:59;;;;;;;5.32;4.82;;;;;;;15.64;100.00;93206.81;2081533;28;20022;-83
2023/08/24 03:34:00;;;;;;;6.75;4.93;;;;;;;15.67;100.00;93205.94;2074181;28;20022;-83
2023/08/24 03:35:10;;;;;;;8.18;5.10;;;;;;;15.76;100.00;93205.19;2069044;28;20388;-82
2023/08/24 03:38:13;;;;;;;8.15;5.60;;;;;;;15.81;100.00;93205.38;2065507;28;20535;-82
2023/08/24 03:39:51;;;;;;;7.45;6.10;;;;;;;15.81;100.00;93204.63;2065598;28;20052;-83
2023/08/24 03:43:07;;;;;;;6.38;5.78;;;;;;;15.73;100.00;93198.75;2057300;28;20030;-83
2023/08/24 03:44:08;;;;;;;5.68;5.18;;;;;;;15.68;100.00;93201.31;2059952;28;20037;-82
2023/08/24 03:45:55;;;;;;;5.90;5.28;;;;;;;15.62;100.00;93196.44;2044863;29;20039;-82
2023/08/24 03:46:57;;;;;;;5.60;5.00;;;;;;;15.60;100.00;93193.47;2058883;28;20040;-83
2023/08/24 03:47:58;;;;;;;5.88;5.32;;;;;;;15.66;100.00;93196.34;2063019;28;20048;-82
2023/08/24 03:52:58;;;;;;;6.05;5.35;;;;;;;15.55;100.00;93191.34;2053177;28;20125;-81
2023/08/24 03:58:03;;;;;;;7.22;5.10;;;;;;;15.38;100.00;93194.75;2057544;28;20035;-82
2023/08/24 03:59:04;;;;;;;7.93;5.22;;;;;;;15.32;100.00;93195.34;2056149;28;20372;-82
2023/08/24 04:00:10;;;;;;;6.35;5.18;;;;;;;15.41;100.00;93197.31;2049094;29;20031;-82
2023/08/24 04:01:11;;;;;;;7.72;5.35;;;;;;;15.37;100.00;93194.00;2061136;28;20029;-82
2023/08/24 04:02:12;;;;;;;6.38;5.47;;;;;;;15.38;100.00;93198.19;2066837;28;20026;-82
2023/08/24 04:03:13;;;;;;;6.63;5.50;;;;;;;15.27;100.00;93192.44;2073503;28;20030;-82
2023/08/24 04:04:14;;;;;;;6.28;5.60;;;;;;;15.19;100.00;93194.69;2058163;28;20023;-82
2023/08/24 04:05:16;;;;;;;9.93;5.80;;;;;;;15.28;100.00;93199.34;2056001;28;20023;-83
2023/08/24 04:06:19;;;;;;;6.15;5.30;;;;;;;15.22;100.00;93193.78;2073167;28;20427;-82
2023/08/24 04:07:20;;;;;;;6.45;5.50;;;;;;;15.16;100.00;93194.81;2066100;28;20392;-82
2023/08/24 04:08:21;;;;;;;7.68;5.47;;;;;;;15.16;100.00;93192.88;2073670;28;20053;-82
2023/08/24 04:09:22;;;;;;;7.47;6.22;;;;;;;15.15;100.00;93196.75;2065867;28;20022;-82
2023/08/24 04:10:23;;;;;;;6.80;5.40;;;;;;;15.01;100.00;93194.59;2065284;28;20045;-82
2023/08/24 04:11:24;;;;;;;6.10;5.60;;;;;;;15.01;100.00;93192.66;2063406;28;20368;-82
2023/08/24 04:12:25;;;;;;;6.00;5.40;;;;;;;15.06;100.00;93194.78;2069411;28;20182;-82
2023/08/24 04:13:26;;;;;;;9.52;5.63;;;;;;;14.98;100.00;93198.19;2075477;28;20029;-82
2023/08/24 04:14:27;;;;;;;9.80;6.10;;;;;;;15.05;100.00;93193.25;2074003;28;20104;-82
2023/08/24 04:15:28;;;;;;;6.28;5.68;;;;;;;15.06;100.00;93189.41;2081721;28;20466;-82
2023/08/24 04:16:29;;;;;;;7.88;5.50;;;;;;;15.05;100.00;93184.44;2074437;28;20537;-83
2023/08/24 04:17:30;;;;;;;6.75;5.78;;;;;;;15.05;100.00;93192.50;2073722;28;20022;-82
2023/08/24 04:18:32;;;;;;;8.10;5.35;;;;;;;15.08;100.00;93184.31;2086037;28;20139;-82
2023/08/24 04:19:33;;;;;;;6.85;5.70;;;;;;;14.99;100.00;93186.22;2073824;28;20041;-82
2023/08/24 04:20:33;;;;;;;5.70;5.13;;;;;;;15.07;100.00;93192.84;2072095;28;20374;-82
2023/08/24 04:21:34;;;;;;;6.00;5.40;;;;;;;15.11;100.00;93188.06;2065492;28;20530;-83
2023/08/24 04:22:36;;;;;;;6.35;5.68;;;;;;;15.13;100.00;93188.38;2069064;28;20520;-82
2023/08/24 04:23:36;;;;;;;7.05;5.72;;;;;;;15.15;100.00;93193.31;2071202;28;20042;-82
2023/08/24 04:24:37;;;;;;;6.38;5.45;;;;;;;15.12;100.00;93189.56;2065700;28;20719;-82
2023/08/24 04:25:40;;;;;;;7.05;5.70;;;;;;;15.13;100.00;93199.13;2057564;28;20034;-81
2023/08/24 04:26:41;;;;;;;10.65;5.80;;;;;;;15.09;100.00;93185.78;2060307;28;20113;-81
2023/08/24 04:27:42;;;;;;;12.68;5.68;;;;;;;15.11;100.00;93188.06;2065543;28;20026;-82
2023/08/24 04:28:43;;;;;;;5.65;5.15;;;;;;;15.16;100.00;93190.19;2074759;28;20040;-82
2023/08/24 04:29:44;;;;;;;9.25;5.53;;;;;;;15.22;100.00;93190.34;2072789;28;20021;-81
2023/08/24 04:30:55;;;;;;;6.78;5.45;;;;;;;15.26;100.00;93188.25;2073711;28;20045;-83
2023/08/24 04:31:56;;;;;;;7.18;5.80;;;;;;;15.26;100.00;93182.88;2071345;28;20033;-82
2023/08/24 04:32:59;;;;;;;6.93;5.85;;;;;;;15.29;100.00;93185.44;2057585;28;20057;-83
2023/08/24 04:34:00;;;;;;;8.30;5.78;;;;;;;15.31;100.00;93185.72;2057532;28;20383;-82
2023/08/24 04:35:01;;;;;;;5.93;5.43;;;;;;;15.29;100.00;93179.31;2067993;28;20050;-81
2023/08/24 04:36:05;;;;;;;6.22;5.53;;;;;;;15.29;100.00;93184.69;2076407;28;20033;-83
2023/08/24 04:37:09;;;;;;;8.30;5.90;;;;;;;15.19;100.00;93177.75;2074330;28;20033;-82
2023/08/24 04:38:10;;;;;;;8.93;5.88;;;;;;;15.22;100.00;93179.56;2070414;28;20041;-81
2023/08/24 04:39:11;;;;;;;7.25;5.50;;;;;;;15.23;100.00;93184.53;2057570;28;20109;-82
2023/08/24 04:40:12;;;;;;;6.90;5.28;;;;;;;15.28;100.00;93189.34;2061188;28;20153;-83
2023/08/24 04:41:13;;;;;;;6.97;5.95;;;;;;;15.34;100.00;93181.41;2074283;28;20473;-82
2023/08/24 04:42:14;;;;;;;7.82;6.00;;;;;;;15.38;100.00;93181.28;2074616;28;20026;-82
2023/08/24 04:43:15;;;;;;;6.88;5.40;;;;;;;15.45;100.00;93179.06;2079492;28;20026;-82
2023/08/24 04:44:16;;;;;;;8.95;5.70;;;;;;;15.46;100.00;93182.50;2081800;28;20025;-82
2023/08/24 04:45:18;;;;;;;6.43;5.80;;;;;;;15.37;100.00;93180.53;2068413;28;20049;-82
2023/08/24 04:46:19;;;;;;;8.27;5.68;;;;;;;15.40;100.00;93184.25;2067781;28;20399;-84
2023/08/24 04:47:20;;;;;;;7.63;5.80;;;;;;;15.42;100.00;93176.50;2065284;28;20026;-81
2023/08/24 04:48:23;;;;;;;6.45;5.85;;;;;;;15.39;100.00;93186.22;2070779;28;20085;-82
2023/08/24 04:49:24;;;;;;;7.95;5.97;;;;;;;15.37;100.00;93180.53;2073582;28;20343;-82
2023/08/24 04:50:25;;;;;;;6.88;5.85;;;;;;;15.42;100.00;93176.50;2073508;28;20127;-82
2023/08/24 04:51:27;;;;;;;6.40;5.75;;;;;;;15.40;100.00;93176.94;2073361;28;20037;-83
2023/08/24 04:52:28;;;;;;;6.70;5.90;;;;;;;15.44;100.00;93176.78;2074073;28;20458;-82
2023/08/24 04:53:29;;;;;;;7.25;5.82;;;;;;;15.42;100.00;93171.13;2071624;28;20033;-81
2023/08/24 04:54:30;;;;;;;6.25;5.65;;;;;;;15.48;100.00;93172.03;2065475;28;20026;-83
2023/08/24 04:55:31;;;;;;;6.43;5.75;;;;;;;15.52;100.00;93178.75;2083898;28;20489;-83
2023/08/24 04:56:32;;;;;;;7.55;5.88;;;;;;;15.56;100.00;93176.69;2078385;28;20371;-82
2023/08/24 04:57:33;;;;;;;9.00;6.38;;;;;;;15.56;100.00;93174.00;2065434;28;20157;-81
2023/08/24 04:58:34;;;;;;;6.72;6.03;;;;;;;15.64;100.00;93171.78;2073064;28;20633;-82
2023/08/24 04:59:35;;;;;;;7.10;6.40;;;;;;;15.71;100.00;93173.44;2073349;28;20549;-81
2023/08/24 05:00:37;;;;;;;7.60;6.32;;;;;;;15.75;100.00;93179.44;2069526;28;20022;-82
2023/08/24 05:01:38;;;;;;;10.60;6.57;;;;;;;15.85;100.00;93184.41;2078444;28;20021;-82
2023/08/24 05:02:41;;;;;;;8.02;6.07;;;;;;;15.90;100.00;93179.63;2065115;28;20358;-82
2023/08/24 05:03:42;;;;;;;9.32;6.63;;;;;;;15.87;100.00;93178.56;2074080;28;20060;-83
2023/08/24 05:04:43;;;;;;;11.05;6.57;;;;;;;15.81;100.00;93172.28;2080847;28;20064;-82
2023/08/24 05:05:45;;;;;;;10.13;6.43;;;;;;;15.80;100.00;93171.53;2065358;28;20060;-82
2023/08/24 05:06:46;;;;;;;10.65;6.18;;;;;;;15.79;100.00;93170.00;2078008;28;20116;-82
2023/08/24 05:07:47;;;;;;;8.50;6.28;;;;;;;15.77;100.00;93175.09;2065399;28;20399;-82
2023/08/24 05:09:24;;;;;;;9.05;6.43;;;;;;;15.86;100.00;93171.69;2059092;28;20023;-81
2023/08/24 05:10:25;;;;;;;10.48;6.20;;;;;;;15.81;100.00;93170.31;2073558;28;20025;-82
2023/08/24 05:13:25;;;;;;;6.90;6.15;;;;;;;15.86;100.00;93163.59;2075649;28;20029;-82
2023/08/24 05:14:27;;;;;;;10.02;6.95;;;;;;;15.85;100.00;93165.53;2079539;28;20036;-81
2023/08/24 05:15:28;;;;;;;10.13;6.63;;;;;;;15.87;100.00;93165.09;2067152;28;20584;-82
2023/08/24 05:16:29;;;;;;;10.13;6.80;;;;;;;15.80;100.00;93160.75;2065267;28;20030;-82
2023/08/24 05:17:31;;;;;;;11.13;6.82;;;;;;;15.90;100.00;93161.50;2073286;28;20021;-83
2023/08/24 05:18:36;;;;;;;10.40;6.50;;;;;;;15.84;100.00;93160.56;2069208;28;20097;-81
2023/08/24 05:19:37;;;;;;;7.53;6.10;;;;;;;15.84;100.00;93160.56;2058248;28;20049;-81
2023/08/24 05:20:38;;;;;;;8.52;6.57;;;;;;;15.91;100.00;93163.00;2056943;28;20491;-82
2023/08/24 05:21:39;;;;;;;7.35;6.20;;;;;;;16.01;100.00;93161.03;2060534;28;20042;-82
2023/08/24 05:22:40;;;;;;;9.70;6.63;;;;;;;15.96;100.00;93156.25;2065182;28;20029;-82
2023/08/24 05:23:42;;;;;;;7.75;6.15;;;;;;;16.03;100.00;93161.34;2078707;28;20040;-82
2023/08/24 05:25:24;;;;;;;9.70;6.55;;;;;;;15.88;100.00;93157.75;2074970;28;20037;-82
2023/08/24 05:26:25;;;;;;;6.97;6.28;;;;;;;16.01;100.00;93155.66;2067978;28;20036;-82
2023/08/24 05:27:26;;;;;;;7.60;5.60;;;;;;;16.08;100.00;93158.06;2081482;28;20522;-82
2023/08/24 05:28:28;;;;;;;6.05;5.45;;;;;;;16.04;100.00;93160.91;2070106;28;20440;-82
2023/08/24 05:29:29;;;;;;;8.82;5.28;;;;;;;16.05;100.00;93159.69;2065228;28;20026;-82
2023/08/24 05:30:30;;;;;;;8.57;6.60;;;;;;;16.10;100.00;93159.09;2079291;28;20510;-82
2023/08/24 05:31:31;;;;;;;11.73;5.13;;;;;;;16.06;100.00;93160.44;2072077;28;20505;-83
2023/08/24 05:32:32;;;;;;;8.70;5.63;;;;;;;16.16;100.00;93161.22;2073425;28;20028;-82
2023/08/24 05:33:33;;;;;;;6.20;5.70;;;;;;;16.16;100.00;93161.22;2077141;28;20041;-82
2023/08/24 05:34:34;;;;;;;8.40;5.85;;;;;;;16.25;100.00;93170.03;2072860;28;20021;-81
2023/08/24 05:35:35;;;;;;;6.88;6.28;;;;;;;16.38;100.00;93161.78;2063564;28;20375;-82
2023/08/24 05:36:36;;;;;;;6.38;5.70;;;;;;;16.38;100.00;93167.19;2064869;28;20022;-82
2023/08/24 05:37:37;;;;;;;8.73;5.65;;;;;;;16.36;100.00;93166.88;2065080;28;20030;-82
2023/08/24 05:38:38;;;;;;;8.52;5.85;;;;;;;16.48;100.00;93160.56;2068616;28;20154;-81
2023/08/24 05:39:39;;;;;;;5.88;5.25;;;;;;;16.48;100.00;93165.22;2072873;28;20441;-82
2023/08/24 05:40:42;;;;;;;9.23;6.43;;;;;;;16.45;100.00;93164.16;2071774;28;20148;-84
2023/08/24 05:41:43;;;;;;;7.30;5.90;;;;;;;16.50;100.00;93160.84;2071164;28;20116;-83
2023/08/24 05:42:53;;;;;;;7.88;5.68;;;;;;;16.58;100.00;93164.00;2076865;28;20029;-82